sensor_id;sensor_type;location;lat;lon;timestamp;temperature;humidity
16523;DHT22;19889;52.546;13.348;2022-10-15T00:01:08;15.70;99.90
16523;DHT22;19889;52.546;13.348;2022-10-15T00:03:36;15.60;99.90
16523;DHT22;19889;52.546;13.348;2022-10-15T00:06:06;15.50;99.90
16523;DHT22;19889;52.546;13.348;2022-10-15T00:08:33;15.80;99.90
16523;DHT22;19889;52.546;13.348;2022-10-15T00:11:05;15.60;99.90
16523;DHT22;19889;52.546;13.348;2022-10-15T00:13:32;15.40;99.90
16523;DHT22;19889;52.546;13.348;2022-10-15T00:15:59;15.60;99.90
16523;DHT22;19889;52.546;13.348;2022-10-15T00:18:26;15.60;99.90
16523;DHT22;19889;52.546;13.348;2022-10-15T00:20:53;15.60;99.90
16523;DHT22;19889;52.546;13.348;2022-10-15T00:23:21;15.70;99.90
16523;DHT22;19889;52.546;13.348;2022-10-15T00:25:48;15.70;99.90
16523;DHT22;19889;52.546;13.348;2022-10-15T00:28:15;15.80;99.90
16523;DHT22;19889;52.546;13.348;2022-10-15T00:30:41;15.70;99.90
16523;DHT22;19889;52.546;13.348;2022-10-15T00:33:08;15.50;99.90
16523;DHT22;19889;52.546;13.348;2022-10-15T00:35:35;15.60;99.90
16523;DHT22;19889;52.546;13.348;2022-10-15T00:38:02;15.60;99.90
16523;DHT22;19889;52.546;13.348;2022-10-15T00:40:30;15.60;99.90
16523;DHT22;19889;52.546;13.348;2022-10-15T00:42:56;15.50;99.90
16523;DHT22;19889;52.546;13.348;2022-10-15T00:45:23;15.60;99.90
16523;DHT22;19889;52.546;13.348;2022-10-15T00:47:50;15.70;99.90
16523;DHT22;19889;52.546;13.348;2022-10-15T00:50:19;15.50;99.90
16523;DHT22;19889;52.546;13.348;2022-10-15T00:52:56;15.60;99.90
16523;DHT22;19889;52.546;13.348;2022-10-15T00:55:27;15.50;99.90
16523;DHT22;19889;52.546;13.348;2022-10-15T00:57:58;15.60;99.90
16523;DHT22;19889;52.546;13.348;2022-10-15T01:00:26;15.70;99.90
16523;DHT22;19889;52.546;13.348;2022-10-15T01:02:55;16.00;99.90
16523;DHT22;19889;52.546;13.348;2022-10-15T01:05:23;15.60;99.90
16523;DHT22;19889;52.546;13.348;2022-10-15T01:07:50;15.70;99.90
16523;DHT22;19889;52.546;13.348;2022-10-15T01:10:17;15.60;99.90
16523;DHT22;19889;52.546;13.348;2022-10-15T01:12:53;15.50;99.90
16523;DHT22;19889;52.546;13.348;2022-10-15T01:15:29;15.50;99.90
16523;DHT22;19889;52.546;13.348;2022-10-15T01:18:00;15.50;99.90
16523;DHT22;19889;52.546;13.348;2022-10-15T01:29:46;15.50;99.90
16523;DHT22;19889;52.546;13.348;2022-10-15T01:32:21;15.40;99.90
16523;DHT22;19889;52.546;13.348;2022-10-15T01:34:53;15.50;99.90
16523;DHT22;19889;52.546;13.348;2022-10-15T01:37:28;15.00;99.90
16523;DHT22;19889;52.546;13.348;2022-10-15T01:40:01;15.40;99.90
16523;DHT22;19889;52.546;13.348;2022-10-15T01:42:39;15.40;99.90
16523;DHT22;19889;52.546;13.348;2022-10-15T01:45:09;15.40;99.90
16523;DHT22;19889;52.546;13.348;2022-10-15T01:48:08;15.30;99.90
16523;DHT22;19889;52.546;13.348;2022-10-15T01:50:39;15.30;99.90
16523;DHT22;19889;52.546;13.348;2022-10-15T01:53:07;15.30;99.90
16523;DHT22;19889;52.546;13.348;2022-10-15T01:55:36;15.40;99.90
16523;DHT22;19889;52.546;13.348;2022-10-15T01:58:09;15.40;99.90
16523;DHT22;19889;52.546;13.348;2022-10-15T02:00:37;15.00;99.90
16523;DHT22;19889;52.546;13.348;2022-10-15T02:03:07;15.30;99.90
16523;DHT22;19889;52.546;13.348;2022-10-15T02:05:39;15.30;99.90
16523;DHT22;19889;52.546;13.348;2022-10-15T02:08:15;15.30;99.90
16523;DHT22;19889;52.546;13.348;2022-10-15T02:10:48;15.40;99.90
16523;DHT22;19889;52.546;13.348;2022-10-15T02:13:23;15.30;99.90
16523;DHT22;19889;52.546;13.348;2022-10-15T02:15:56;15.30;99.90
16523;DHT22;19889;52.546;13.348;2022-10-15T02:18:29;15.50;99.90
16523;DHT22;19889;52.546;13.348;2022-10-15T02:21:00;15.30;99.90
16523;DHT22;19889;52.546;13.348;2022-10-15T02:23:40;15.40;99.90
16523;DHT22;19889;52.546;13.348;2022-10-15T02:26:12;15.60;99.90
16523;DHT22;19889;52.546;13.348;2022-10-15T02:28:43;15.30;99.90
16523;DHT22;19889;52.546;13.348;2022-10-15T02:31:13;15.30;99.90
16523;DHT22;19889;52.546;13.348;2022-10-15T02:33:43;15.20;99.90
16523;DHT22;19889;52.546;13.348;2022-10-15T02:36:12;15.30;99.90
16523;DHT22;19889;52.546;13.348;2022-10-15T02:38:42;15.30;99.90
16523;DHT22;19889;52.546;13.348;2022-10-15T02:41:10;15.30;99.90
16523;DHT22;19889;52.546;13.348;2022-10-15T02:43:39;15.30;99.90
16523;DHT22;19889;52.546;13.348;2022-10-15T02:46:07;15.30;99.90
16523;DHT22;19889;52.546;13.348;2022-10-15T02:48:36;15.30;99.90
16523;DHT22;19889;52.546;13.348;2022-10-15T02:51:05;15.20;99.90
16523;DHT22;19889;52.546;13.348;2022-10-15T02:53:32;15.30;99.90
16523;DHT22;19889;52.546;13.348;2022-10-15T02:55:58;15.30;99.90
16523;DHT22;19889;52.546;13.348;2022-10-15T02:58:25;15.40;99.90
16523;DHT22;19889;52.546;13.348;2022-10-15T03:00:53;15.30;99.90
16523;DHT22;19889;52.546;13.348;2022-10-15T03:03:21;15.40;99.90
16523;DHT22;19889;52.546;13.348;2022-10-15T03:05:47;15.40;99.90
16523;DHT22;19889;52.546;13.348;2022-10-15T03:08:16;15.40;99.90
16523;DHT22;19889;52.546;13.348;2022-10-15T03:10:43;15.40;99.90
16523;DHT22;19889;52.546;13.348;2022-10-15T03:13:11;15.40;99.90
16523;DHT22;19889;52.546;13.348;2022-10-15T03:15:45;15.50;99.90
16523;DHT22;19889;52.546;13.348;2022-10-15T03:18:13;15.40;99.90
16523;DHT22;19889;52.546;13.348;2022-10-15T03:20:40;15.40;99.90
16523;DHT22;19889;52.546;13.348;2022-10-15T03:23:07;15.30;99.90
16523;DHT22;19889;52.546;13.348;2022-10-15T03:25:35;15.50;99.90
16523;DHT22;19889;52.546;13.348;2022-10-15T03:28:03;15.40;99.90
16523;DHT22;19889;52.546;13.348;2022-10-15T03:30:41;15.40;99.90
16523;DHT22;19889;52.546;13.348;2022-10-15T03:33:08;15.40;99.90
16523;DHT22;19889;52.546;13.348;2022-10-15T03:35:35;15.50;99.90
16523;DHT22;19889;52.546;13.348;2022-10-15T03:38:03;15.60;99.90
16523;DHT22;19889;52.546;13.348;2022-10-15T03:40:30;15.40;99.90
16523;DHT22;19889;52.546;13.348;2022-10-15T03:43:10;15.30;99.90
16523;DHT22;19889;52.546;13.348;2022-10-15T03:45:37;15.40;99.90
16523;DHT22;19889;52.546;13.348;2022-10-15T03:48:14;15.40;99.90
16523;DHT22;19889;52.546;13.348;2022-10-15T03:50:40;15.40;99.90
16523;DHT22;19889;52.546;13.348;2022-10-15T03:53:07;15.40;99.90
16523;DHT22;19889;52.546;13.348;2022-10-15T03:55:34;15.40;99.90
16523;DHT22;19889;52.546;13.348;2022-10-15T03:58:01;15.40;99.90
16523;DHT22;19889;52.546;13.348;2022-10-15T04:00:29;15.50;99.90
16523;DHT22;19889;52.546;13.348;2022-10-15T04:03:00;15.40;99.90
16523;DHT22;19889;52.546;13.348;2022-10-15T04:05:27;15.40;99.90
16523;DHT22;19889;52.546;13.348;2022-10-15T04:08:00;15.60;99.90
16523;DHT22;19889;52.546;13.348;2022-10-15T04:10:30;15.40;99.90
16523;DHT22;19889;52.546;13.348;2022-10-15T04:12:57;15.40;99.90
16523;DHT22;19889;52.546;13.348;2022-10-15T04:15:25;15.50;99.90
16523;DHT22;19889;52.546;13.348;2022-10-15T04:17:58;15.50;99.90
16523;DHT22;19889;52.546;13.348;2022-10-15T04:20:27;15.40;99.90
16523;DHT22;19889;52.546;13.348;2022-10-15T04:23:01;15.40;99.90
16523;DHT22;19889;52.546;13.348;2022-10-15T04:25:28;15.50;99.90
16523;DHT22;19889;52.546;13.348;2022-10-15T04:27:55;15.40;99.90
16523;DHT22;19889;52.546;13.348;2022-10-15T04:30:22;15.30;99.90
16523;DHT22;19889;52.546;13.348;2022-10-15T04:32:58;15.40;99.90
16523;DHT22;19889;52.546;13.348;2022-10-15T04:35:25;15.50;99.90
16523;DHT22;19889;52.546;13.348;2022-10-15T04:38:03;15.50;99.90
16523;DHT22;19889;52.546;13.348;2022-10-15T04:40:57;15.30;99.90
16523;DHT22;19889;52.546;13.348;2022-10-15T04:43:27;15.50;99.90
16523;DHT22;19889;52.546;13.348;2022-10-15T04:45:59;15.40;99.90
16523;DHT22;19889;52.546;13.348;2022-10-15T04:48:29;15.10;99.90
16523;DHT22;19889;52.546;13.348;2022-10-15T04:51:02;15.60;99.90
16523;DHT22;19889;52.546;13.348;2022-10-15T04:53:39;15.60;99.90
16523;DHT22;19889;52.546;13.348;2022-10-15T04:56:10;15.30;99.90
16523;DHT22;19889;52.546;13.348;2022-10-15T04:58:38;15.30;99.90
16523;DHT22;19889;52.546;13.348;2022-10-15T05:01:07;15.30;99.90
16523;DHT22;19889;52.546;13.348;2022-10-15T05:03:52;15.30;99.90
16523;DHT22;19889;52.546;13.348;2022-10-15T05:06:20;15.30;99.90
16523;DHT22;19889;52.546;13.348;2022-10-15T05:08:52;15.30;99.90
16523;DHT22;19889;52.546;13.348;2022-10-15T05:11:27;15.30;99.90
16523;DHT22;19889;52.546;13.348;2022-10-15T05:13:56;15.30;99.90
16523;DHT22;19889;52.546;13.348;2022-10-15T05:16:26;15.30;99.90
16523;DHT22;19889;52.546;13.348;2022-10-15T05:18:57;15.30;99.90
16523;DHT22;19889;52.546;13.348;2022-10-15T05:21:24;15.30;99.90
16523;DHT22;19889;52.546;13.348;2022-10-15T05:23:55;15.30;99.90
16523;DHT22;19889;52.546;13.348;2022-10-15T05:26:42;15.30;99.90
16523;DHT22;19889;52.546;13.348;2022-10-15T05:29:09;15.30;99.90
16523;DHT22;19889;52.546;13.348;2022-10-15T05:31:36;15.30;99.90
16523;DHT22;19889;52.546;13.348;2022-10-15T05:34:16;15.30;99.90
16523;DHT22;19889;52.546;13.348;2022-10-15T05:36:49;15.30;99.90
16523;DHT22;19889;52.546;13.348;2022-10-15T05:39:16;15.30;99.90
16523;DHT22;19889;52.546;13.348;2022-10-15T05:41:44;15.30;99.90
16523;DHT22;19889;52.546;13.348;2022-10-15T05:44:12;15.30;99.90
16523;DHT22;19889;52.546;13.348;2022-10-15T05:46:39;15.30;99.90
16523;DHT22;19889;52.546;13.348;2022-10-15T05:49:06;15.30;99.90
16523;DHT22;19889;52.546;13.348;2022-10-15T05:51:48;15.30;99.90
16523;DHT22;19889;52.546;13.348;2022-10-15T05:54:24;15.30;99.90
16523;DHT22;19889;52.546;13.348;2022-10-15T05:56:51;15.30;99.90
16523;DHT22;19889;52.546;13.348;2022-10-15T05:59:17;15.30;99.90
16523;DHT22;19889;52.546;13.348;2022-10-15T06:01:44;15.30;99.90
16523;DHT22;19889;52.546;13.348;2022-10-15T06:04:13;15.30;99.90
16523;DHT22;19889;52.546;13.348;2022-10-15T06:06:41;15.30;99.90
16523;DHT22;19889;52.546;13.348;2022-10-15T06:09:09;15.30;99.90
16523;DHT22;19889;52.546;13.348;2022-10-15T06:11:35;15.30;99.90
16523;DHT22;19889;52.546;13.348;2022-10-15T06:14:02;15.30;99.90
16523;DHT22;19889;52.546;13.348;2022-10-15T06:16:29;15.30;99.90
16523;DHT22;19889;52.546;13.348;2022-10-15T06:18:56;15.30;99.90
16523;DHT22;19889;52.546;13.348;2022-10-15T06:21:22;15.30;99.90
16523;DHT22;19889;52.546;13.348;2022-10-15T06:23:49;15.30;99.90
16523;DHT22;19889;52.546;13.348;2022-10-15T06:26:17;15.30;99.90
16523;DHT22;19889;52.546;13.348;2022-10-15T06:28:47;15.30;99.90
16523;DHT22;19889;52.546;13.348;2022-10-15T06:31:13;15.30;99.90
16523;DHT22;19889;52.546;13.348;2022-10-15T06:33:40;15.20;99.90
16523;DHT22;19889;52.546;13.348;2022-10-15T06:36:09;15.30;99.90
16523;DHT22;19889;52.546;13.348;2022-10-15T06:38:36;15.30;99.90
16523;DHT22;19889;52.546;13.348;2022-10-15T06:41:04;15.30;99.90
16523;DHT22;19889;52.546;13.348;2022-10-15T06:43:32;15.30;99.90
16523;DHT22;19889;52.546;13.348;2022-10-15T06:45:59;15.30;99.90
16523;DHT22;19889;52.546;13.348;2022-10-15T06:48:26;15.30;99.90
16523;DHT22;19889;52.546;13.348;2022-10-15T06:50:53;15.30;99.90
16523;DHT22;19889;52.546;13.348;2022-10-15T06:53:20;15.30;99.90
16523;DHT22;19889;52.546;13.348;2022-10-15T06:55:47;15.30;99.90
16523;DHT22;19889;52.546;13.348;2022-10-15T06:58:14;15.40;99.90
16523;DHT22;19889;52.546;13.348;2022-10-15T07:00:42;15.40;99.90
16523;DHT22;19889;52.546;13.348;2022-10-15T07:03:09;15.40;99.90
16523;DHT22;19889;52.546;13.348;2022-10-15T07:05:35;15.40;99.90
16523;DHT22;19889;52.546;13.348;2022-10-15T07:08:02;15.40;99.90
16523;DHT22;19889;52.546;13.348;2022-10-15T07:10:29;15.40;99.90
16523;DHT22;19889;52.546;13.348;2022-10-15T07:12:58;15.40;99.90
16523;DHT22;19889;52.546;13.348;2022-10-15T07:15:26;15.50;99.90
16523;DHT22;19889;52.546;13.348;2022-10-15T07:17:55;15.60;99.90
16523;DHT22;19889;52.546;13.348;2022-10-15T07:20:26;15.50;99.90
16523;DHT22;19889;52.546;13.348;2022-10-15T07:22:55;15.50;99.90
16523;DHT22;19889;52.546;13.348;2022-10-15T07:25:26;15.50;99.90
16523;DHT22;19889;52.546;13.348;2022-10-15T07:27:54;15.50;99.90
16523;DHT22;19889;52.546;13.348;2022-10-15T07:30:21;15.50;99.90
16523;DHT22;19889;52.546;13.348;2022-10-15T07:32:50;15.50;99.90
16523;DHT22;19889;52.546;13.348;2022-10-15T07:35:18;15.50;99.90
16523;DHT22;19889;52.546;13.348;2022-10-15T07:37:45;15.50;99.90
16523;DHT22;19889;52.546;13.348;2022-10-15T07:40:12;15.60;99.90
16523;DHT22;19889;52.546;13.348;2022-10-15T07:42:40;15.60;99.90
16523;DHT22;19889;52.546;13.348;2022-10-15T07:45:08;15.60;99.90
16523;DHT22;19889;52.546;13.348;2022-10-15T07:47:35;15.60;99.90
16523;DHT22;19889;52.546;13.348;2022-10-15T07:50:02;15.60;99.90
16523;DHT22;19889;52.546;13.348;2022-10-15T07:52:31;15.70;99.90
16523;DHT22;19889;52.546;13.348;2022-10-15T07:54:57;15.70;99.90
16523;DHT22;19889;52.546;13.348;2022-10-15T07:57:24;15.70;99.90
16523;DHT22;19889;52.546;13.348;2022-10-15T07:59:52;15.70;99.90
16523;DHT22;19889;52.546;13.348;2022-10-15T08:02:18;15.70;99.90
16523;DHT22;19889;52.546;13.348;2022-10-15T08:04:46;15.80;99.90
16523;DHT22;19889;52.546;13.348;2022-10-15T08:07:12;15.80;99.90
16523;DHT22;19889;52.546;13.348;2022-10-15T08:09:40;15.80;99.90
16523;DHT22;19889;52.546;13.348;2022-10-15T08:12:07;16.00;99.90
16523;DHT22;19889;52.546;13.348;2022-10-15T08:14:35;16.00;99.90
16523;DHT22;19889;52.546;13.348;2022-10-15T08:17:02;16.00;99.90
16523;DHT22;19889;52.546;13.348;2022-10-15T08:19:29;16.00;99.90
16523;DHT22;19889;52.546;13.348;2022-10-15T08:21:56;16.10;99.90
16523;DHT22;19889;52.546;13.348;2022-10-15T08:24:23;16.00;99.90
16523;DHT22;19889;52.546;13.348;2022-10-15T08:26:51;16.10;99.90
16523;DHT22;19889;52.546;13.348;2022-10-15T08:29:18;16.10;99.90
16523;DHT22;19889;52.546;13.348;2022-10-15T08:31:45;16.20;99.90
16523;DHT22;19889;52.546;13.348;2022-10-15T08:34:11;16.20;99.90
16523;DHT22;19889;52.546;13.348;2022-10-15T08:36:38;16.10;99.90
16523;DHT22;19889;52.546;13.348;2022-10-15T08:39:05;16.00;99.90
16523;DHT22;19889;52.546;13.348;2022-10-15T08:41:37;16.10;99.90
16523;DHT22;19889;52.546;13.348;2022-10-15T08:44:06;16.10;99.90
16523;DHT22;19889;52.546;13.348;2022-10-15T08:46:41;16.10;99.90
16523;DHT22;19889;52.546;13.348;2022-10-15T08:49:15;16.10;99.90
16523;DHT22;19889;52.546;13.348;2022-10-15T08:51:47;16.10;99.90
16523;DHT22;19889;52.546;13.348;2022-10-15T08:54:18;16.20;99.90
16523;DHT22;19889;52.546;13.348;2022-10-15T08:56:48;16.20;99.90
16523;DHT22;19889;52.546;13.348;2022-10-15T08:59:27;16.20;99.90
16523;DHT22;19889;52.546;13.348;2022-10-15T09:01:58;16.20;99.90
16523;DHT22;19889;52.546;13.348;2022-10-15T09:04:34;16.30;99.90
16523;DHT22;19889;52.546;13.348;2022-10-15T09:07:10;16.30;99.90
16523;DHT22;19889;52.546;13.348;2022-10-15T09:09:43;16.30;99.90
16523;DHT22;19889;52.546;13.348;2022-10-15T09:12:28;16.30;99.90
16523;DHT22;19889;52.546;13.348;2022-10-15T09:15:00;16.30;99.90
16523;DHT22;19889;52.546;13.348;2022-10-15T09:17:31;16.30;99.90
16523;DHT22;19889;52.546;13.348;2022-10-15T09:20:02;16.40;99.90
16523;DHT22;19889;52.546;13.348;2022-10-15T09:22:31;16.40;99.90
16523;DHT22;19889;52.546;13.348;2022-10-15T09:25:06;16.40;99.90
16523;DHT22;19889;52.546;13.348;2022-10-15T09:27:39;16.40;99.90
16523;DHT22;19889;52.546;13.348;2022-10-15T09:30:20;16.40;99.90
16523;DHT22;19889;52.546;13.348;2022-10-15T09:32:52;16.50;99.90
16523;DHT22;19889;52.546;13.348;2022-10-15T09:35:24;16.50;99.90
16523;DHT22;19889;52.546;13.348;2022-10-15T09:37:55;16.50;99.90
16523;DHT22;19889;52.546;13.348;2022-10-15T09:40:32;16.50;99.90
16523;DHT22;19889;52.546;13.348;2022-10-15T09:43:03;16.50;99.90
16523;DHT22;19889;52.546;13.348;2022-10-15T09:45:32;16.50;99.90
16523;DHT22;19889;52.546;13.348;2022-10-15T09:47:59;16.60;99.90
16523;DHT22;19889;52.546;13.348;2022-10-15T09:50:43;16.60;99.90
16523;DHT22;19889;52.546;13.348;2022-10-15T09:53:17;16.60;99.90
16523;DHT22;19889;52.546;13.348;2022-10-15T09:55:49;16.60;99.90
16523;DHT22;19889;52.546;13.348;2022-10-15T09:58:24;16.60;99.90
16523;DHT22;19889;52.546;13.348;2022-10-15T10:00:59;16.70;99.90
16523;DHT22;19889;52.546;13.348;2022-10-15T10:03:34;16.70;99.90
16523;DHT22;19889;52.546;13.348;2022-10-15T10:06:03;16.70;99.90
16523;DHT22;19889;52.546;13.348;2022-10-15T10:08:38;16.70;99.90
16523;DHT22;19889;52.546;13.348;2022-10-15T10:11:07;16.70;99.90
16523;DHT22;19889;52.546;13.348;2022-10-15T10:13:39;16.80;99.90
16523;DHT22;19889;52.546;13.348;2022-10-15T10:16:09;16.80;99.90
16523;DHT22;19889;52.546;13.348;2022-10-15T10:18:37;16.80;99.90
16523;DHT22;19889;52.546;13.348;2022-10-15T10:21:06;16.90;99.90
16523;DHT22;19889;52.546;13.348;2022-10-15T10:23:38;16.90;99.90
16523;DHT22;19889;52.546;13.348;2022-10-15T10:26:08;16.90;99.90
16523;DHT22;19889;52.546;13.348;2022-10-15T10:28:39;16.90;99.90
16523;DHT22;19889;52.546;13.348;2022-10-15T10:31:10;16.90;99.90
16523;DHT22;19889;52.546;13.348;2022-10-15T10:33:43;17.00;99.90
16523;DHT22;19889;52.546;13.348;2022-10-15T10:36:21;17.00;99.90
16523;DHT22;19889;52.546;13.348;2022-10-15T10:38:55;17.00;99.90
16523;DHT22;19889;52.546;13.348;2022-10-15T10:41:48;17.10;99.90
16523;DHT22;19889;52.546;13.348;2022-10-15T10:44:21;17.10;99.90
16523;DHT22;19889;52.546;13.348;2022-10-15T10:47:01;17.10;99.90
16523;DHT22;19889;52.546;13.348;2022-10-15T10:49:30;17.10;99.90
16523;DHT22;19889;52.546;13.348;2022-10-15T10:51:58;17.00;99.90
16523;DHT22;19889;52.546;13.348;2022-10-15T10:54:26;17.10;99.90
16523;DHT22;19889;52.546;13.348;2022-10-15T10:56:56;17.10;99.90
16523;DHT22;19889;52.546;13.348;2022-10-15T10:59:26;17.10;99.90
16523;DHT22;19889;52.546;13.348;2022-10-15T11:01:53;17.20;99.90
16523;DHT22;19889;52.546;13.348;2022-10-15T11:04:23;17.20;99.90
16523;DHT22;19889;52.546;13.348;2022-10-15T11:06:57;17.20;99.90
16523;DHT22;19889;52.546;13.348;2022-10-15T11:09:40;17.20;99.90
16523;DHT22;19889;52.546;13.348;2022-10-15T11:12:23;17.30;99.90
16523;DHT22;19889;52.546;13.348;2022-10-15T11:14:59;17.20;99.90
16523;DHT22;19889;52.546;13.348;2022-10-15T11:17:34;17.30;99.90
16523;DHT22;19889;52.546;13.348;2022-10-15T11:20:17;17.30;99.90
16523;DHT22;19889;52.546;13.348;2022-10-15T11:22:59;17.30;99.90
16523;DHT22;19889;52.546;13.348;2022-10-15T11:25:33;17.30;99.90
16523;DHT22;19889;52.546;13.348;2022-10-15T11:28:20;17.30;99.90
16523;DHT22;19889;52.546;13.348;2022-10-15T11:30:51;17.30;99.90
16523;DHT22;19889;52.546;13.348;2022-10-15T11:33:32;17.40;99.90
16523;DHT22;19889;52.546;13.348;2022-10-15T11:36:28;17.40;99.90
16523;DHT22;19889;52.546;13.348;2022-10-15T11:39:08;17.40;99.90
16523;DHT22;19889;52.546;13.348;2022-10-15T11:41:46;17.40;99.90
16523;DHT22;19889;52.546;13.348;2022-10-15T11:44:34;17.40;99.90
16523;DHT22;19889;52.546;13.348;2022-10-15T11:47:24;17.50;99.90
16523;DHT22;19889;52.546;13.348;2022-10-15T11:50:03;17.40;99.90
16523;DHT22;19889;52.546;13.348;2022-10-15T11:52:52;17.40;99.90
16523;DHT22;19889;52.546;13.348;2022-10-15T11:55:24;17.50;99.90
16523;DHT22;19889;52.546;13.348;2022-10-15T11:57:58;17.40;99.90
16523;DHT22;19889;52.546;13.348;2022-10-15T12:00:32;17.40;99.90
16523;DHT22;19889;52.546;13.348;2022-10-15T12:03:04;17.50;99.90
16523;DHT22;19889;52.546;13.348;2022-10-15T12:05:34;17.50;99.90
16523;DHT22;19889;52.546;13.348;2022-10-15T12:08:03;17.50;99.90
16523;DHT22;19889;52.546;13.348;2022-10-15T12:10:42;17.50;99.90
16523;DHT22;19889;52.546;13.348;2022-10-15T12:13:17;17.70;99.90
16523;DHT22;19889;52.546;13.348;2022-10-15T12:15:55;17.60;99.90
16523;DHT22;19889;52.546;13.348;2022-10-15T12:18:28;17.70;99.90
16523;DHT22;19889;52.546;13.348;2022-10-15T12:20:57;17.70;99.90
16523;DHT22;19889;52.546;13.348;2022-10-15T12:23:25;17.80;99.90
16523;DHT22;19889;52.546;13.348;2022-10-15T12:26:26;17.80;99.90
16523;DHT22;19889;52.546;13.348;2022-10-15T12:28:56;17.90;99.90
16523;DHT22;19889;52.546;13.348;2022-10-15T12:31:24;17.80;99.90
16523;DHT22;19889;52.546;13.348;2022-10-15T12:33:52;17.40;99.90
16523;DHT22;19889;52.546;13.348;2022-10-15T12:36:22;17.80;99.90
16523;DHT22;19889;52.546;13.348;2022-10-15T12:38:56;17.80;99.90
16523;DHT22;19889;52.546;13.348;2022-10-15T12:41:36;17.90;99.90
16523;DHT22;19889;52.546;13.348;2022-10-15T12:44:05;18.70;99.90
16523;DHT22;19889;52.546;13.348;2022-10-15T12:46:37;18.10;99.90
16523;DHT22;19889;52.546;13.348;2022-10-15T12:55:21;18.00;99.90
16523;DHT22;19889;52.546;13.348;2022-10-15T12:57:56;17.90;99.90
16523;DHT22;19889;52.546;13.348;2022-10-15T13:00:32;18.00;99.90
16523;DHT22;19889;52.546;13.348;2022-10-15T13:03:14;18.00;99.90
16523;DHT22;19889;52.546;13.348;2022-10-15T13:05:41;18.00;99.90
16523;DHT22;19889;52.546;13.348;2022-10-15T13:08:14;18.00;99.90
16523;DHT22;19889;52.546;13.348;2022-10-15T13:10:47;19.20;99.90
16523;DHT22;19889;52.546;13.348;2022-10-15T13:13:18;18.00;99.90
16523;DHT22;19889;52.546;13.348;2022-10-15T13:15:57;18.00;99.90
16523;DHT22;19889;52.546;13.348;2022-10-15T13:18:28;18.00;99.90
16523;DHT22;19889;52.546;13.348;2022-10-15T13:20:56;18.00;99.90
16523;DHT22;19889;52.546;13.348;2022-10-15T13:23:25;18.00;99.90
16523;DHT22;19889;52.546;13.348;2022-10-15T13:28:36;18.10;99.90
16523;DHT22;19889;52.546;13.348;2022-10-15T13:31:05;18.10;99.90
16523;DHT22;19889;52.546;13.348;2022-10-15T13:33:39;18.10;99.90
16523;DHT22;19889;52.546;13.348;2022-10-15T13:36:07;18.10;99.90
16523;DHT22;19889;52.546;13.348;2022-10-15T13:38:36;18.10;99.90
16523;DHT22;19889;52.546;13.348;2022-10-15T13:41:04;18.20;99.90
16523;DHT22;19889;52.546;13.348;2022-10-15T13:43:31;18.10;99.90
16523;DHT22;19889;52.546;13.348;2022-10-15T13:45:59;18.10;99.90
16523;DHT22;19889;52.546;13.348;2022-10-15T13:48:28;18.10;99.90
16523;DHT22;19889;52.546;13.348;2022-10-15T13:50:59;18.10;99.90
16523;DHT22;19889;52.546;13.348;2022-10-15T13:53:28;18.10;99.90
16523;DHT22;19889;52.546;13.348;2022-10-15T13:55:58;18.10;99.90
16523;DHT22;19889;52.546;13.348;2022-10-15T13:58:26;18.10;99.90
16523;DHT22;19889;52.546;13.348;2022-10-15T14:00:57;18.10;99.90
16523;DHT22;19889;52.546;13.348;2022-10-15T14:03:26;18.10;99.90
16523;DHT22;19889;52.546;13.348;2022-10-15T14:05:54;18.10;99.90
16523;DHT22;19889;52.546;13.348;2022-10-15T14:08:26;18.10;99.90
16523;DHT22;19889;52.546;13.348;2022-10-15T14:10:56;18.10;99.90
16523;DHT22;19889;52.546;13.348;2022-10-15T14:13:23;18.10;99.90
16523;DHT22;19889;52.546;13.348;2022-10-15T14:15:58;18.10;99.90
16523;DHT22;19889;52.546;13.348;2022-10-15T14:18:30;18.10;99.90
16523;DHT22;19889;52.546;13.348;2022-10-15T14:20:57;18.20;99.90
16523;DHT22;19889;52.546;13.348;2022-10-15T14:23:26;18.20;99.90
16523;DHT22;19889;52.546;13.348;2022-10-15T14:25:55;18.10;99.90
16523;DHT22;19889;52.546;13.348;2022-10-15T14:28:23;18.20;99.90
16523;DHT22;19889;52.546;13.348;2022-10-15T14:30:50;18.10;99.90
16523;DHT22;19889;52.546;13.348;2022-10-15T14:33:39;18.10;99.90
16523;DHT22;19889;52.546;13.348;2022-10-15T14:36:12;18.10;99.90
16523;DHT22;19889;52.546;13.348;2022-10-15T14:38:41;18.10;99.90
16523;DHT22;19889;52.546;13.348;2022-10-15T14:41:28;18.10;99.90
16523;DHT22;19889;52.546;13.348;2022-10-15T14:44:04;18.10;99.90
16523;DHT22;19889;52.546;13.348;2022-10-15T14:46:37;18.20;99.90
16523;DHT22;19889;52.546;13.348;2022-10-15T14:49:19;18.10;99.90
16523;DHT22;19889;52.546;13.348;2022-10-15T14:51:56;18.20;99.90
16523;DHT22;19889;52.546;13.348;2022-10-15T14:54:26;18.10;99.90
16523;DHT22;19889;52.546;13.348;2022-10-15T14:56:56;18.10;99.90
16523;DHT22;19889;52.546;13.348;2022-10-15T14:59:28;18.20;99.90
16523;DHT22;19889;52.546;13.348;2022-10-15T15:01:59;18.20;99.90
16523;DHT22;19889;52.546;13.348;2022-10-15T15:04:38;18.20;99.90
16523;DHT22;19889;52.546;13.348;2022-10-15T15:07:19;18.10;99.90
16523;DHT22;19889;52.546;13.348;2022-10-15T15:09:48;18.20;99.90
16523;DHT22;19889;52.546;13.348;2022-10-15T15:12:21;18.10;99.90
16523;DHT22;19889;52.546;13.348;2022-10-15T15:14:48;18.10;99.90
16523;DHT22;19889;52.546;13.348;2022-10-15T15:17:17;18.10;99.90
16523;DHT22;19889;52.546;13.348;2022-10-15T15:19:45;18.20;99.90
16523;DHT22;19889;52.546;13.348;2022-10-15T15:22:14;18.10;99.90
16523;DHT22;19889;52.546;13.348;2022-10-15T15:24:41;18.20;99.90
16523;DHT22;19889;52.546;13.348;2022-10-15T15:27:20;18.20;99.90
16523;DHT22;19889;52.546;13.348;2022-10-15T15:29:48;18.10;99.90
16523;DHT22;19889;52.546;13.348;2022-10-15T15:32:16;18.20;99.90
16523;DHT22;19889;52.546;13.348;2022-10-15T15:34:43;18.10;99.90
16523;DHT22;19889;52.546;13.348;2022-10-15T15:37:12;18.10;99.90
16523;DHT22;19889;52.546;13.348;2022-10-15T15:39:39;18.10;99.90
16523;DHT22;19889;52.546;13.348;2022-10-15T15:42:09;18.10;99.90
16523;DHT22;19889;52.546;13.348;2022-10-15T15:44:38;18.10;99.90
16523;DHT22;19889;52.546;13.348;2022-10-15T15:47:05;18.10;99.90
16523;DHT22;19889;52.546;13.348;2022-10-15T15:49:31;18.00;99.90
16523;DHT22;19889;52.546;13.348;2022-10-15T15:51:58;18.10;99.90
16523;DHT22;19889;52.546;13.348;2022-10-15T15:54:25;18.10;99.90
16523;DHT22;19889;52.546;13.348;2022-10-15T15:56:52;18.10;99.90